UKV1396 EGFF-EGHQ
Flight info
| Callsign | UKV1396 |
|---|---|
| Flight time | 0h 22m |
| Altitude | 8000 |
| Route | EXMOR DCT CF30 |
| Aircraft | B737/M-SDE2E3FGIRWY/LB1 |
Departure
| Time | 2026-05-07 12:11 |
|---|---|
| Airport | Cardiff International Airport (EGFF) |
Arrival
| Time | 2026-05-07 12:33 |
|---|---|
| Airport | Cornwall Airport Newquay (EGHQ) |
| Time | Latitude | Longitude | Altitude | Speed | Heading |
|---|---|---|---|---|---|
| 2026-05-07 12:03 | 51.39905 | -3.34314 | 229 ft | 0 kts | 69° |
| 2026-05-07 12:06 | 51.39903 | -3.34323 | 229 ft | 2 kts | 69° |
| 2026-05-07 12:06 | 51.39897 | -3.34349 | 229 ft | 3 kts | 69° |
| 2026-05-07 12:06 | 51.39895 | -3.34354 | 229 ft | 3 kts | 69° |
| 2026-05-07 12:07 | 51.39890 | -3.34378 | 229 ft | 3 kts | 69° |
| 2026-05-07 12:07 | 51.39882 | -3.34409 | 229 ft | 3 kts | 69° |
| 2026-05-07 12:07 | 51.39875 | -3.34440 | 229 ft | 3 kts | 69° |
| 2026-05-07 12:07 | 51.39868 | -3.34471 | 229 ft | 3 kts | 69° |
| 2026-05-07 12:08 | 51.39865 | -3.34485 | 229 ft | 2 kts | 64° |
| 2026-05-07 12:08 | 51.40010 | -3.34377 | 229 ft | 28 kts | 24° |
| 2026-05-07 12:08 | 51.40148 | -3.34416 | 229 ft | 23 kts | 326° |
| 2026-05-07 12:08 | 51.40181 | -3.34525 | 229 ft | 9 kts | 201° |
| 2026-05-07 12:09 | 51.40067 | -3.34613 | 229 ft | 27 kts | 206° |
| 2026-05-07 12:09 | 51.39950 | -3.34750 | 229 ft | 11 kts | 285° |
| 2026-05-07 12:09 | 51.39998 | -3.34901 | 229 ft | 19 kts | 298° |
| 2026-05-07 12:09 | 51.40073 | -3.35127 | 229 ft | 27 kts | 297° |
| 2026-05-07 12:10 | 51.40151 | -3.35389 | 229 ft | 19 kts | 275° |
| 2026-05-07 12:10 | 51.40106 | -3.35476 | 229 ft | 11 kts | 202° |
| 2026-05-07 12:10 | 51.40031 | -3.35500 | 229 ft | 7 kts | 140° |
| 2026-05-07 12:10 | 51.39982 | -3.35351 | 229 ft | 67 kts | 116° |
| 2026-05-07 12:11 | 51.39530 | -3.33935 | 276 ft | 205 kts | 117° |
| 2026-05-07 12:11 | 51.38903 | -3.32008 | 1349 ft | 199 kts | 118° |
| 2026-05-07 12:11 | 51.38190 | -3.29919 | 1606 ft | 215 kts | 122° |
| 2026-05-07 12:11 | 51.37093 | -3.28454 | 2190 ft | 206 kts | 150° |
| 2026-05-07 12:12 | 51.35717 | -3.27629 | 2849 ft | 214 kts | 163° |
| 2026-05-07 12:12 | 51.34246 | -3.27167 | 3483 ft | 217 kts | 170° |
| 2026-05-07 12:12 | 51.32745 | -3.26887 | 4112 ft | 219 kts | 173° |
| 2026-05-07 12:12 | 51.31192 | -3.26938 | 4710 ft | 231 kts | 190° |
| 2026-05-07 12:13 | 51.29688 | -3.27979 | 5384 ft | 241 kts | 210° |
| 2026-05-07 12:13 | 51.28341 | -3.29646 | 6013 ft | 249 kts | 221° |
| 2026-05-07 12:13 | 51.27117 | -3.31660 | 6605 ft | 256 kts | 226° |
| 2026-05-07 12:13 | 51.25758 | -3.33498 | 7235 ft | 260 kts | 212° |
| 2026-05-07 12:14 | 51.24130 | -3.34748 | 7873 ft | 263 kts | 199° |
| 2026-05-07 12:14 | 51.22354 | -3.35505 | 8508 ft | 266 kts | 190° |
| 2026-05-07 12:14 | 51.21127 | -3.35800 | 8929 ft | 268 kts | 186° |
| 2026-05-07 12:14 | 51.18735 | -3.36897 | 9776 ft | 273 kts | 206° |
| 2026-05-07 12:15 | 51.17650 | -3.37966 | 10204 ft | 277 kts | 214° |
| 2026-05-07 12:15 | 51.16092 | -3.39955 | 10858 ft | 294 kts | 220° |
| 2026-05-07 12:15 | 51.14582 | -3.42228 | 11494 ft | 304 kts | 224° |
| 2026-05-07 12:15 | 51.13101 | -3.44665 | 12128 ft | 311 kts | 226° |
| 2026-05-07 12:16 | 51.11624 | -3.47211 | 12754 ft | 316 kts | 227° |
| 2026-05-07 12:16 | 51.10137 | -3.49835 | 13384 ft | 321 kts | 227° |
| 2026-05-07 12:16 | 51.08624 | -3.52540 | 13936 ft | 329 kts | 227° |
| 2026-05-07 12:16 | 51.07082 | -3.55304 | 13993 ft | 338 kts | 228° |
| 2026-05-07 12:17 | 51.05521 | -3.58109 | 13999 ft | 339 kts | 227° |
| 2026-05-07 12:17 | 51.03958 | -3.60917 | 13999 ft | 337 kts | 228° |
| 2026-05-07 12:17 | 51.02419 | -3.63680 | 14000 ft | 337 kts | 228° |
| 2026-05-07 12:17 | 51.00865 | -3.66467 | 14000 ft | 337 kts | 228° |
| 2026-05-07 12:18 | 50.99305 | -3.69259 | 14000 ft | 337 kts | 227° |
| 2026-05-07 12:18 | 50.97756 | -3.72029 | 14000 ft | 337 kts | 227° |
| 2026-05-07 12:18 | 50.96195 | -3.74816 | 14000 ft | 337 kts | 227° |
| 2026-05-07 12:18 | 50.94643 | -3.77581 | 13999 ft | 337 kts | 227° |
| 2026-05-07 12:19 | 50.93092 | -3.80343 | 14000 ft | 336 kts | 227° |
| 2026-05-07 12:19 | 50.91529 | -3.83122 | 14000 ft | 336 kts | 227° |
| 2026-05-07 12:19 | 50.89965 | -3.85898 | 14000 ft | 336 kts | 227° |
| 2026-05-07 12:19 | 50.88400 | -3.88672 | 14000 ft | 336 kts | 227° |
| 2026-05-07 12:20 | 50.86840 | -3.91435 | 14000 ft | 336 kts | 227° |
| 2026-05-07 12:20 | 50.85278 | -3.94196 | 14000 ft | 336 kts | 227° |
| 2026-05-07 12:20 | 50.83717 | -3.96952 | 14000 ft | 336 kts | 227° |
| 2026-05-07 12:20 | 50.82169 | -3.99682 | 13999 ft | 336 kts | 227° |
| 2026-05-07 12:21 | 50.80606 | -4.02437 | 13998 ft | 329 kts | 227° |
| 2026-05-07 12:21 | 50.79093 | -4.05102 | 13997 ft | 323 kts | 227° |
| 2026-05-07 12:21 | 50.77601 | -4.07727 | 13998 ft | 319 kts | 227° |
| 2026-05-07 12:21 | 50.76118 | -4.10333 | 13999 ft | 317 kts | 227° |
| 2026-05-07 12:22 | 50.74639 | -4.12929 | 13850 ft | 318 kts | 227° |
| 2026-05-07 12:22 | 50.73166 | -4.15510 | 13368 ft | 318 kts | 227° |
| 2026-05-07 12:22 | 50.71701 | -4.18075 | 12866 ft | 311 kts | 227° |
| 2026-05-07 12:22 | 50.70267 | -4.20586 | 12364 ft | 306 kts | 227° |
| 2026-05-07 12:23 | 50.68857 | -4.23050 | 11864 ft | 301 kts | 227° |
| 2026-05-07 12:23 | 50.68371 | -4.23899 | 11689 ft | 300 kts | 227° |
| 2026-05-07 12:23 | 50.67383 | -4.25624 | 11338 ft | 297 kts | 227° |
| 2026-05-07 12:23 | 50.66028 | -4.27990 | 10877 ft | 289 kts | 227° |
| 2026-05-07 12:24 | 50.64691 | -4.30319 | 10422 ft | 282 kts | 227° |
| 2026-05-07 12:24 | 50.63382 | -4.32600 | 9967 ft | 277 kts | 227° |
| 2026-05-07 12:24 | 50.62102 | -4.34827 | 9514 ft | 273 kts | 227° |
| 2026-05-07 12:24 | 50.60832 | -4.37034 | 9012 ft | 272 kts | 227° |
| 2026-05-07 12:25 | 50.59569 | -4.39228 | 8511 ft | 269 kts | 227° |
| 2026-05-07 12:25 | 50.58310 | -4.41412 | 8006 ft | 266 kts | 227° |
| 2026-05-07 12:25 | 50.57089 | -4.43529 | 7511 ft | 263 kts | 227° |
| 2026-05-07 12:25 | 50.55850 | -4.45675 | 7007 ft | 261 kts | 227° |
| 2026-05-07 12:26 | 50.54648 | -4.47755 | 6511 ft | 259 kts | 227° |
| 2026-05-07 12:26 | 50.53427 | -4.49867 | 6006 ft | 257 kts | 227° |
| 2026-05-07 12:26 | 50.52230 | -4.51934 | 5512 ft | 256 kts | 227° |
| 2026-05-07 12:26 | 50.51044 | -4.53983 | 5063 ft | 253 kts | 227° |
| 2026-05-07 12:27 | 50.49862 | -4.56022 | 4610 ft | 250 kts | 227° |
| 2026-05-07 12:27 | 50.48718 | -4.57995 | 4244 ft | 241 kts | 227° |
| 2026-05-07 12:27 | 50.47609 | -4.59908 | 3879 ft | 232 kts | 226° |
| 2026-05-07 12:27 | 50.46540 | -4.61751 | 3628 ft | 225 kts | 226° |
| 2026-05-07 12:28 | 50.45491 | -4.63556 | 3378 ft | 224 kts | 226° |
| 2026-05-07 12:28 | 50.44442 | -4.65356 | 3166 ft | 222 kts | 226° |
| 2026-05-07 12:28 | 50.43406 | -4.67134 | 3046 ft | 219 kts | 226° |
| 2026-05-07 12:28 | 50.42385 | -4.68888 | 3009 ft | 219 kts | 226° |
| 2026-05-07 12:29 | 50.41356 | -4.70653 | 3002 ft | 220 kts | 226° |
| 2026-05-07 12:29 | 50.40327 | -4.72416 | 3009 ft | 214 kts | 226° |
| 2026-05-07 12:29 | 50.39348 | -4.74095 | 2993 ft | 208 kts | 226° |
| 2026-05-07 12:29 | 50.38376 | -4.75759 | 2997 ft | 205 kts | 226° |
| 2026-05-07 12:30 | 50.37419 | -4.77415 | 2993 ft | 203 kts | 228° |
| 2026-05-07 12:30 | 50.36850 | -4.79364 | 2996 ft | 200 kts | 258° |
| 2026-05-07 12:30 | 50.37038 | -4.81516 | 3023 ft | 198 kts | 289° |
| 2026-05-07 12:30 | 50.37664 | -4.83403 | 3033 ft | 194 kts | 301° |
| 2026-05-07 12:31 | 50.38385 | -4.85112 | 2854 ft | 185 kts | 304° |
| 2026-05-07 12:31 | 50.39097 | -4.86738 | 2583 ft | 176 kts | 304° |
| 2026-05-07 12:31 | 50.39767 | -4.88313 | 2276 ft | 172 kts | 303° |
| 2026-05-07 12:31 | 50.40416 | -4.89915 | 1985 ft | 178 kts | 302° |
| 2026-05-07 12:32 | 50.41061 | -4.91595 | 1705 ft | 179 kts | 301° |
| 2026-05-07 12:32 | 50.41691 | -4.93252 | 1318 ft | 177 kts | 301° |
| 2026-05-07 12:32 | 50.42308 | -4.94883 | 966 ft | 169 kts | 301° |
| 2026-05-07 12:32 | 50.42862 | -4.96332 | 696 ft | 143 kts | 301° |
| 2026-05-07 12:33 | 50.43792 | -4.98806 | 399 ft | 117 kts | 302° |
| 2026-05-07 12:33 | 50.44106 | -4.99602 | 399 ft | 64 kts | 300° |
| 2026-05-07 12:33 | 50.44294 | -5.00106 | 399 ft | 48 kts | 301° |
| 2026-05-07 12:34 | 50.44372 | -5.00487 | 399 ft | 25 kts | 231° |
| 2026-05-07 12:34 | 50.44220 | -5.00504 | 399 ft | 23 kts | 132° |
| 2026-05-07 12:34 | 50.44109 | -5.00286 | 399 ft | 29 kts | 122° |
| 2026-05-07 12:34 | 50.44001 | -5.00000 | 399 ft | 30 kts | 120° |
| 2026-05-07 12:35 | 50.43898 | -4.99721 | 399 ft | 30 kts | 120° |
| 2026-05-07 12:35 | 50.43787 | -4.99421 | 399 ft | 31 kts | 120° |
| 2026-05-07 12:35 | 50.43673 | -4.99304 | 399 ft | 12 kts | 235° |
| 2026-05-07 12:35 | 50.43678 | -4.99436 | 399 ft | 0 kts | 284° |